Time;durP1;ratioP1;P1;durP2;ratioP2;P2;SDS_P1;SDS_P2;PMS_P1;PMS_P2;Temp;Humidity;BMP_temperature;BMP_pressure;BME280_temperature;BME280_humidity;BME280_pressure;Samples;Min_cycle;Max_cycle;Signal;HPM_P1;HPM_P2
2022/06/07 00:02:15;;;;;;;12.10;6.40;;;12.60;99.90;;;;;;5035874;28;20111;-64
2022/06/07 00:04:41;;;;;;;8.05;5.63;;;12.60;99.90;;;;;;5048488;28;20132;-63
2022/06/07 00:07:09;;;;;;;11.88;6.20;;;12.60;99.90;;;;;;5050390;28;20086;-65
2022/06/07 00:09:35;;;;;;;9.75;5.20;;;12.50;99.90;;;;;;5049617;28;20400;-67
2022/06/07 00:12:02;;;;;;;11.18;5.68;;;12.50;99.90;;;;;;5050011;28;20053;-63
2022/06/07 00:14:27;;;;;;;11.88;5.97;;;12.50;99.90;;;;;;5048567;28;20040;-64
2022/06/07 00:16:56;;;;;;;10.40;6.07;;;12.50;99.90;;;;;;5047588;28;20393;-64
2022/06/07 00:19:22;;;;;;;9.70;5.32;;;12.50;99.90;;;;;;5049592;28;20127;-65
2022/06/07 00:21:48;;;;;;;9.68;4.90;;;12.50;99.90;;;;;;5048078;28;20106;-64
2022/06/07 00:24:14;;;;;;;8.73;5.10;;;12.50;99.90;;;;;;5048582;28;20049;-63
2022/06/07 00:26:42;;;;;;;9.88;5.80;;;12.50;99.90;;;;;;5048391;28;20044;-64
2022/06/07 00:29:08;;;;;;;11.15;6.07;;;12.50;99.90;;;;;;5048544;28;20068;-65
2022/06/07 00:31:35;;;;;;;9.90;5.72;;;12.50;99.90;;;;;;5050445;28;20102;-64
2022/06/07 00:34:01;;;;;;;8.38;5.22;;;12.50;99.90;;;;;;5048899;28;20494;-65
2022/06/07 00:36:28;;;;;;;8.98;5.65;;;12.50;99.90;;;;;;5049597;28;20041;-65
2022/06/07 00:38:53;;;;;;;14.57;5.90;;;12.50;99.90;;;;;;5033588;28;20059;-65
2022/06/07 00:41:19;;;;;;;10.43;5.97;;;12.50;99.90;;;;;;5053466;28;20121;-64
2022/06/07 00:44:19;;;;;;;10.30;5.90;;;12.50;99.90;;;;;;5048366;28;20037;-64
2022/06/07 00:46:45;;;;;;;12.57;6.70;;;12.50;99.90;;;;;;5043368;28;20067;-65
2022/06/07 00:49:18;;;;;;;10.75;6.30;;;12.50;99.90;;;;;;5052841;28;20049;-66
2022/06/07 00:51:45;;;;;;;11.68;7.53;;;12.50;99.90;;;;;;5052823;28;20564;-64
2022/06/07 00:54:21;;;;;;;12.20;8.25;;;12.50;99.90;;;;;;5035474;28;20053;-64
2022/06/07 00:56:47;;;;;;;12.88;7.40;;;12.50;99.90;;;;;;5060208;28;20061;-65
2022/06/07 00:59:12;;;;;;;12.95;7.55;;;12.40;99.90;;;;;;5050950;28;21101;-64
2022/06/07 01:01:38;;;;;;;12.55;7.95;;;12.40;99.90;;;;;;5052951;28;20045;-65
2022/06/07 01:04:04;;;;;;;14.30;7.78;;;12.50;99.90;;;;;;5050414;28;20049;-65
2022/06/07 01:11:58;;;;;;;13.13;8.75;;;12.50;99.90;;;;;;5084344;28;20056;-64
2022/06/07 01:14:24;;;;;;;15.18;8.05;;;12.40;99.90;;;;;;5042672;28;20053;-65
2022/06/07 01:16:49;;;;;;;11.95;7.90;;;12.50;99.90;;;;;;5048853;28;20131;-64
2022/06/07 01:19:15;;;;;;;11.60;8.00;;;12.40;99.90;;;;;;5052616;28;20049;-63
2022/06/07 01:21:41;;;;;;;10.82;7.57;;;12.50;99.90;;;;;;5052161;28;20052;-65
2022/06/07 01:24:07;;;;;;;13.98;7.78;;;12.50;99.90;;;;;;5052170;28;20565;-66
2022/06/07 01:26:33;;;;;;;11.27;7.65;;;12.50;99.90;;;;;;5051240;28;20395;-65
2022/06/07 01:28:59;;;;;;;16.77;8.65;;;12.40;99.90;;;;;;5053347;28;20055;-64
2022/06/07 01:31:25;;;;;;;10.70;6.63;;;12.40;99.90;;;;;;5082890;28;20123;-64
2022/06/07 01:33:51;;;;;;;13.20;7.65;;;12.50;99.90;;;;;;5051803;28;20045;-65
2022/06/07 01:36:18;;;;;;;9.48;7.07;;;12.50;99.90;;;;;;5052271;28;20395;-64
2022/06/07 01:38:45;;;;;;;14.05;7.10;;;12.50;99.90;;;;;;5054185;28;20049;-65
2022/06/07 01:43:58;;;;;;;11.73;7.15;;;12.50;99.90;;;;;;5051578;28;20457;-63
2022/06/07 01:46:24;;;;;;;14.52;7.28;;;12.50;99.90;;;;;;5052360;28;20456;-65
2022/06/07 01:48:50;;;;;;;15.90;7.13;;;12.50;99.90;;;;;;5049990;28;20049;-66
2022/06/07 01:51:17;;;;;;;12.18;7.47;;;12.50;99.90;;;;;;5061269;28;20075;-64
2022/06/07 01:53:43;;;;;;;14.23;7.18;;;12.50;99.90;;;;;;5059670;28;20158;-64
2022/06/07 01:56:11;;;;;;;11.43;7.03;;;12.50;99.90;;;;;;5066399;28;20622;-64
2022/06/07 01:58:42;;;;;;;14.05;7.00;;;12.60;99.90;;;;;;5052101;28;20057;-64
2022/06/07 02:01:09;;;;;;;13.15;6.85;;;12.50;99.90;;;;;;5051079;28;20056;-65
2022/06/07 02:03:34;;;;;;;11.13;6.97;;;12.60;99.90;;;;;;5054261;28;20122;-63
2022/06/07 02:06:07;;;;;;;13.80;7.05;;;12.60;99.90;;;;;;5055495;28;20041;-65
2022/06/07 02:08:36;;;;;;;13.80;6.38;;;12.60;99.90;;;;;;5038182;28;20106;-63
2022/06/07 02:11:14;;;;;;;11.82;6.30;;;12.60;99.90;;;;;;5050942;28;20048;-63
2022/06/07 02:13:40;;;;;;;12.48;6.93;;;12.60;99.90;;;;;;5050950;28;20498;-64
2022/06/07 02:16:06;;;;;;;12.38;6.80;;;12.60;99.90;;;;;;5056846;28;20066;-62
2022/06/07 02:18:33;;;;;;;11.68;8.02;;;12.60;99.90;;;;;;5053101;28;20056;-67
2022/06/07 02:21:00;;;;;;;12.10;6.68;;;12.60;99.90;;;;;;5051269;28;20048;-65
2022/06/07 02:23:27;;;;;;;10.68;7.13;;;12.60;99.90;;;;;;5050052;28;20405;-63
2022/06/07 02:26:21;;;;;;;12.02;7.43;;;12.70;99.90;;;;;;5049825;28;20103;-67
2022/06/07 02:28:53;;;;;;;13.73;7.43;;;12.60;99.90;;;;;;5052520;28;20040;-65
2022/06/07 02:31:22;;;;;;;11.70;6.82;;;12.60;99.90;;;;;;5050276;28;20298;-65
2022/06/07 02:33:48;;;;;;;15.73;7.70;;;12.60;99.90;;;;;;5049300;28;20090;-64
2022/06/07 02:36:14;;;;;;;13.18;7.03;;;12.70;99.90;;;;;;5041871;28;20049;-64
2022/06/07 02:38:41;;;;;;;15.60;8.43;;;12.60;99.90;;;;;;5051666;28;20059;-63
2022/06/07 02:41:09;;;;;;;11.10;7.63;;;12.70;99.90;;;;;;5057841;28;20434;-65
2022/06/07 02:43:35;;;;;;;13.57;8.02;;;12.70;99.90;;;;;;5054198;28;20098;-64
2022/06/07 02:46:02;;;;;;;17.08;8.38;;;12.70;99.90;;;;;;5050396;28;20045;-64
2022/06/07 02:48:29;;;;;;;13.15;8.20;;;12.70;99.90;;;;;;5049973;28;20095;-64
2022/06/07 02:50:54;;;;;;;11.63;8.27;;;12.70;99.90;;;;;;5050694;28;20056;-65
2022/06/07 02:53:20;;;;;;;13.63;8.65;;;12.70;99.90;;;;;;5049976;28;20036;-65
2022/06/07 02:55:46;;;;;;;12.63;8.07;;;12.70;99.90;;;;;;5049490;28;20114;-64
2022/06/07 02:58:12;;;;;;;16.30;9.02;;;12.70;99.90;;;;;;5048961;28;20061;-64
2022/06/07 03:00:37;;;;;;;17.65;8.98;;;12.60;99.90;;;;;;5054255;28;20048;-65
2022/06/07 03:03:03;;;;;;;12.52;8.18;;;12.60;99.90;;;;;;5058161;28;20076;-64
2022/06/07 03:05:29;;;;;;;15.98;7.93;;;12.60;99.90;;;;;;5049105;28;20063;-64
2022/06/07 03:07:55;;;;;;;14.95;8.45;;;12.60;99.90;;;;;;5049344;28;20061;-65
2022/06/07 03:10:21;;;;;;;14.18;8.63;;;12.60;99.90;;;;;;5065151;28;20041;-65
2022/06/07 03:12:47;;;;;;;12.90;7.38;;;12.60;99.90;;;;;;5065637;28;20390;-64
2022/06/07 03:15:13;;;;;;;11.18;8.18;;;12.60;99.90;;;;;;5048600;28;20048;-64
2022/06/07 03:17:41;;;;;;;12.07;8.05;;;12.60;99.90;;;;;;5063929;28;20109;-64
2022/06/07 03:20:08;;;;;;;12.57;8.35;;;12.60;99.90;;;;;;5049919;28;20115;-63
2022/06/07 03:22:35;;;;;;;13.48;8.48;;;12.60;99.90;;;;;;5032827;28;20063;-63
2022/06/07 03:25:05;;;;;;;15.93;8.77;;;12.60;99.90;;;;;;5050162;28;20479;-66
2022/06/07 03:27:32;;;;;;;12.48;8.70;;;12.60;99.90;;;;;;5049819;28;20507;-65
2022/06/07 03:29:58;;;;;;;16.70;9.00;;;12.60;99.90;;;;;;5032486;28;20502;-64
2022/06/07 03:32:25;;;;;;;11.10;7.80;;;12.60;99.90;;;;;;5048468;28;20498;-64
2022/06/07 03:34:52;;;;;;;15.35;8.90;;;12.60;99.90;;;;;;5049885;28;20056;-65
2022/06/07 03:37:18;;;;;;;16.63;8.85;;;12.60;99.90;;;;;;5049365;28;20036;-64
2022/06/07 03:39:44;;;;;;;14.25;8.52;;;12.60;99.90;;;;;;5050185;28;20048;-64
2022/06/07 03:42:09;;;;;;;10.23;7.85;;;12.60;99.90;;;;;;5061121;28;20041;-63
2022/06/07 03:44:35;;;;;;;14.20;7.57;;;12.70;99.90;;;;;;5050136;28;20045;-65
2022/06/07 03:47:01;;;;;;;14.65;7.55;;;12.60;99.90;;;;;;5057822;28;20123;-65
2022/06/07 03:49:27;;;;;;;11.25;7.72;;;12.60;99.90;;;;;;5049241;28;20048;-65
2022/06/07 03:51:52;;;;;;;12.23;7.72;;;12.50;99.90;;;;;;5049862;28;20468;-65
2022/06/07 03:54:18;;;;;;;15.00;8.20;;;12.60;99.90;;;;;;5048439;28;20041;-63
2022/06/07 03:56:44;;;;;;;14.50;9.02;;;12.50;99.90;;;;;;5049356;28;20069;-65
2022/06/07 03:59:10;;;;;;;12.85;8.82;;;12.50;99.90;;;;;;5062150;28;20037;-65
2022/06/07 04:01:35;;;;;;;14.68;9.15;;;12.40;99.90;;;;;;5050020;28;20056;-65
2022/06/07 04:04:06;;;;;;;16.15;9.13;;;12.30;99.90;;;;;;5049750;28;20414;-66
2022/06/07 04:06:38;;;;;;;15.32;8.38;;;12.20;99.90;;;;;;5049489;28;20538;-65
2022/06/07 04:09:04;;;;;;;10.00;8.10;;;12.20;99.90;;;;;;5049604;28;20063;-64
2022/06/07 04:11:30;;;;;;;14.20;8.30;;;12.10;99.90;;;;;;5049938;28;20060;-65
2022/06/07 04:13:57;;;;;;;11.93;8.00;;;12.10;99.90;;;;;;5053780;28;20044;-66
2022/06/07 04:16:25;;;;;;;11.95;8.30;;;12.10;99.90;;;;;;5052195;28;20084;-64
2022/06/07 04:18:51;;;;;;;13.15;8.70;;;12.10;99.90;;;;;;5053795;28;20440;-65
2022/06/07 04:21:18;;;;;;;17.15;8.65;;;12.00;99.90;;;;;;5052478;28;20053;-64
2022/06/07 04:23:43;;;;;;;11.90;8.90;;;12.00;99.90;;;;;;5051951;28;20040;-65
2022/06/07 04:26:13;;;;;;;14.63;9.18;;;12.00;99.90;;;;;;5061364;28;20111;-71
2022/06/07 04:28:39;;;;;;;15.60;8.45;;;12.00;99.90;;;;;;5066985;28;20045;-64
2022/06/07 04:31:22;;;;;;;12.40;7.20;;;11.90;99.90;;;;;;5052601;28;20061;-64
2022/06/07 04:33:48;;;;;;;11.10;7.10;;;11.90;99.90;;;;;;5053067;28;20099;-66
2022/06/07 04:36:20;;;;;;;8.45;6.43;;;11.90;99.90;;;;;;5055919;28;20044;-64
2022/06/07 04:38:47;;;;;;;11.30;6.45;;;11.90;99.90;;;;;;5055967;28;20067;-63
2022/06/07 04:41:15;;;;;;;11.68;6.30;;;11.80;99.90;;;;;;5062755;28;20124;-68
2022/06/07 04:43:40;;;;;;;10.13;5.85;;;11.80;99.90;;;;;;5050168;28;20055;-64
2022/06/07 04:46:10;;;;;;;11.25;6.47;;;11.90;99.90;;;;;;5053226;28;20037;-64
2022/06/07 04:48:38;;;;;;;11.10;6.68;;;11.90;99.90;;;;;;5053813;28;20049;-64
2022/06/07 04:51:09;;;;;;;9.50;6.80;;;11.90;99.90;;;;;;5039660;28;20076;-65
2022/06/07 04:53:35;;;;;;;9.55;5.75;;;11.90;99.90;;;;;;5052555;28;20057;-65
2022/06/07 04:56:10;;;;;;;12.85;7.53;;;12.00;99.90;;;;;;5052583;28;20086;-65
2022/06/07 04:58:36;;;;;;;13.63;7.40;;;12.00;99.90;;;;;;5051980;28;20056;-65
2022/06/07 05:01:12;;;;;;;10.60;6.38;;;12.00;99.90;;;;;;5052443;28;20111;-64
2022/06/07 05:03:38;;;;;;;13.18;6.32;;;12.10;99.90;;;;;;5054288;28;20114;-64
2022/06/07 05:06:15;;;;;;;10.18;6.63;;;12.10;99.90;;;;;;5051463;28;20045;-65
2022/06/07 05:08:40;;;;;;;12.48;6.53;;;12.10;99.90;;;;;;5051670;28;20049;-64
2022/06/07 05:11:09;;;;;;;12.88;6.35;;;12.10;99.90;;;;;;5051517;28;20556;-64
2022/06/07 05:13:36;;;;;;;14.30;6.78;;;12.20;99.90;;;;;;5051591;28;20075;-65
2022/06/07 05:16:03;;;;;;;10.20;6.50;;;12.20;99.90;;;;;;5064265;28;20742;-64
2022/06/07 05:18:29;;;;;;;13.00;6.93;;;12.20;99.90;;;;;;5049356;28;20049;-65
2022/06/07 05:20:55;;;;;;;10.23;6.78;;;12.20;99.90;;;;;;5052763;28;20535;-63
2022/06/07 05:23:20;;;;;;;12.35;6.28;;;12.20;99.90;;;;;;5051122;28;20049;-64
2022/06/07 05:26:01;;;;;;;13.15;6.25;;;12.20;99.90;;;;;;5051613;28;20498;-63
2022/06/07 05:28:28;;;;;;;11.48;6.38;;;12.30;99.90;;;;;;5043202;28;20059;-64
2022/06/07 05:30:54;;;;;;;10.75;6.03;;;12.20;99.90;;;;;;5044776;28;20757;-64
2022/06/07 05:33:19;;;;;;;9.60;6.40;;;12.30;99.90;;;;;;5048202;28;20047;-67
2022/06/07 05:35:45;;;;;;;12.38;6.45;;;12.30;99.90;;;;;;5048313;28;20502;-65
2022/06/07 05:38:11;;;;;;;11.35;6.65;;;12.30;99.90;;;;;;5027604;28;20045;-64
2022/06/07 05:40:37;;;;;;;12.82;6.43;;;12.40;99.90;;;;;;5052734;28;20049;-65
2022/06/07 05:43:03;;;;;;;10.25;6.05;;;12.40;99.90;;;;;;5082523;28;20037;-64
2022/06/07 05:45:31;;;;;;;15.65;6.22;;;12.40;99.90;;;;;;5046907;28;20048;-63
2022/06/07 05:47:57;;;;;;;9.23;4.90;;;12.40;99.90;;;;;;5035780;28;20058;-63
2022/06/07 05:50:25;;;;;;;9.75;5.25;;;12.30;99.90;;;;;;5014270;28;20052;-66
2022/06/07 05:52:51;;;;;;;9.57;5.47;;;12.30;99.90;;;;;;5077899;28;20060;-64
2022/06/07 05:55:17;;;;;;;10.27;5.20;;;12.20;99.90;;;;;;5050783;28;20045;-65
2022/06/07 05:57:49;;;;;;;10.52;5.18;;;12.20;99.90;;;;;;5038233;28;20081;-64
2022/06/07 06:00:16;;;;;;;9.45;4.75;;;12.20;99.90;;;;;;5033630;28;20049;-65
2022/06/07 06:02:42;;;;;;;11.77;5.10;;;12.20;99.90;;;;;;5033416;28;20135;-64
2022/06/07 06:05:08;;;;;;;7.30;4.70;;;12.10;99.90;;;;;;5036810;28;20057;-64
2022/06/07 06:07:34;;;;;;;8.85;4.97;;;12.10;99.90;;;;;;5048200;28;20512;-65
2022/06/07 06:12:44;;;;;;;9.15;4.15;;;12.10;99.90;;;;;;5064490;28;20065;-66
2022/06/07 06:15:09;;;;;;;7.50;4.95;;;12.10;99.90;;;;;;5051686;28;20457;-65
2022/06/07 06:17:35;;;;;;;13.93;4.63;;;12.00;99.90;;;;;;5042705;28;20088;-66
2022/06/07 06:20:01;;;;;;;11.40;4.93;;;11.90;99.90;;;;;;5041788;28;20494;-65
2022/06/07 06:22:27;;;;;;;9.27;4.30;;;11.90;99.90;;;;;;5029182;28;20071;-70
2022/06/07 06:24:52;;;;;;;6.28;3.67;;;11.90;99.90;;;;;;5082952;28;20379;-66
2022/06/07 06:27:18;;;;;;;7.95;3.33;;;11.90;99.90;;;;;;5038446;28;20049;-66
2022/06/07 06:29:44;;;;;;;6.25;3.50;;;11.90;99.90;;;;;;5031168;28;20152;-66
2022/06/07 06:32:10;;;;;;;7.55;2.95;;;11.90;99.90;;;;;;5036483;28;20046;-66
2022/06/07 06:34:35;;;;;;;10.75;3.72;;;11.90;99.90;;;;;;5060230;28;20102;-68
2022/06/07 06:37:01;;;;;;;5.97;2.22;;;11.90;99.90;;;;;;5013339;28;20110;-65
2022/06/07 06:39:27;;;;;;;9.25;2.55;;;11.90;99.90;;;;;;5039599;28;20083;-70
2022/06/07 06:41:53;;;;;;;6.97;2.90;;;11.90;99.90;;;;;;5057469;28;20069;-66
2022/06/07 06:44:19;;;;;;;4.88;2.30;;;11.90;99.90;;;;;;5034875;28;20529;-65
2022/06/07 06:46:47;;;;;;;5.13;2.70;;;11.90;99.90;;;;;;5034920;28;20475;-66
2022/06/07 06:49:14;;;;;;;4.88;2.78;;;11.90;99.90;;;;;;5046024;28;20038;-65
2022/06/07 06:51:41;;;;;;;5.63;2.80;;;12.00;99.90;;;;;;5044376;28;20548;-65
2022/06/07 06:54:09;;;;;;;7.63;3.08;;;12.10;99.90;;;;;;5041301;28;20037;-64
2022/06/07 06:56:36;;;;;;;6.50;2.72;;;12.10;99.90;;;;;;5075463;28;20489;-65
2022/06/07 06:59:02;;;;;;;6.80;3.08;;;12.20;99.90;;;;;;5047480;28;20485;-64
2022/06/07 07:01:33;;;;;;;6.97;2.75;;;12.30;99.90;;;;;;5074274;28;20049;-64
2022/06/07 07:04:01;;;;;;;5.95;2.85;;;12.40;99.90;;;;;;5038409;28;20077;-64
2022/06/07 07:06:27;;;;;;;8.82;3.25;;;12.50;99.90;;;;;;5073367;28;20384;-66
2022/06/07 07:08:55;;;;;;;6.25;3.10;;;12.60;99.90;;;;;;5049718;28;20036;-64
2022/06/07 07:11:35;;;;;;;8.32;3.30;;;12.60;99.90;;;;;;5050624;28;20053;-65
2022/06/07 07:14:02;;;;;;;7.28;3.00;;;12.70;99.90;;;;;;5049428;28;20865;-64
2022/06/07 07:16:31;;;;;;;9.32;2.78;;;12.60;99.90;;;;;;5050497;28;20048;-65
2022/06/07 07:18:58;;;;;;;7.65;3.03;;;12.70;99.90;;;;;;5064627;28;20057;-65
2022/06/07 07:21:28;;;;;;;11.75;2.55;;;12.90;99.90;;;;;;5049658;28;20053;-66
2022/06/07 07:23:55;;;;;;;8.45;2.58;;;13.00;99.90;;;;;;5069078;28;20720;-65
2022/06/07 07:26:28;;;;;;;7.78;2.65;;;13.00;99.90;;;;;;5048729;28;20490;-65
2022/06/07 07:28:54;;;;;;;9.10;2.35;;;13.10;99.90;;;;;;5048487;28;20571;-65
2022/06/07 07:31:22;;;;;;;7.53;2.20;;;13.20;99.90;;;;;;5050345;28;20067;-65
2022/06/07 07:33:48;;;;;;;8.88;2.42;;;13.30;99.90;;;;;;5072832;28;20053;-64
2022/06/07 07:36:14;;;;;;;7.22;2.90;;;13.40;99.90;;;;;;5045126;28;20045;-65
2022/06/07 07:38:41;;;;;;;7.95;2.80;;;13.50;99.90;;;;;;5042151;28;20179;-65
2022/06/07 07:41:28;;;;;;;9.02;2.70;;;13.60;99.90;;;;;;5063409;28;20053;-65
2022/06/07 07:43:55;;;;;;;12.40;2.90;;;13.70;99.90;;;;;;5046037;28;20045;-66
2022/06/07 07:46:23;;;;;;;8.52;2.67;;;13.70;99.90;;;;;;5043789;28;20045;-65
2022/06/07 07:48:49;;;;;;;10.18;2.33;;;13.60;99.90;;;;;;5043954;28;20120;-64
2022/06/07 07:51:22;;;;;;;13.02;2.78;;;13.60;99.90;;;;;;5048829;28;20037;-64
2022/06/07 07:53:48;;;;;;;7.35;2.38;;;13.60;99.90;;;;;;5036545;28;20122;-65
2022/06/07 07:56:15;;;;;;;6.35;2.03;;;13.50;99.90;;;;;;5047270;28;20046;-66
2022/06/07 07:58:42;;;;;;;8.68;2.63;;;13.50;99.90;;;;;;5044873;28;20099;-66
2022/06/07 08:01:14;;;;;;;11.88;2.88;;;13.40;99.90;;;;;;5032931;28;20053;-67
2022/06/07 08:03:41;;;;;;;6.00;1.67;;;13.30;99.90;;;;;;5078080;28;20099;-68
2022/06/07 08:06:09;;;;;;;8.05;1.98;;;13.30;99.90;;;;;;5034978;28;20111;-67
2022/06/07 08:08:36;;;;;;;8.10;2.30;;;13.20;99.90;;;;;;5047074;28;20056;-65
2022/06/07 08:11:02;;;;;;;5.70;1.95;;;13.30;99.90;;;;;;5045555;28;20595;-64
2022/06/07 08:13:28;;;;;;;6.72;2.10;;;13.30;99.90;;;;;;5045691;28;20476;-67
2022/06/07 08:15:54;;;;;;;7.03;2.08;;;13.30;99.90;;;;;;5046337;28;20153;-65
2022/06/07 08:18:19;;;;;;;6.57;2.05;;;13.30;99.90;;;;;;5037954;28;20041;-63
2022/06/07 08:20:46;;;;;;;7.72;2.25;;;13.40;99.90;;;;;;5063800;28;20044;-63
2022/06/07 08:23:13;;;;;;;9.32;2.00;;;13.30;99.90;;;;;;5045575;28;20047;-64
2022/06/07 08:25:38;;;;;;;5.82;1.90;;;13.30;99.90;;;;;;5039068;28;20045;-65
2022/06/07 08:28:05;;;;;;;9.85;2.40;;;13.50;99.90;;;;;;5080803;28;20056;-65
2022/06/07 08:30:32;;;;;;;8.65;2.35;;;13.60;99.90;;;;;;5042056;28;20380;-63
2022/06/07 08:32:59;;;;;;;7.28;1.83;;;13.70;99.90;;;;;;5080133;28;20491;-64
2022/06/07 08:38:09;;;;;;;13.07;2.38;;;13.80;99.90;;;;;;5039248;28;20103;-68
2022/06/07 08:40:43;;;;;;;6.93;2.17;;;13.90;99.90;;;;;;5041503;28;20053;-65
2022/06/07 08:43:23;;;;;;;5.18;1.80;;;14.00;99.90;;;;;;5041403;28;20512;-64
2022/06/07 08:45:50;;;;;;;6.85;1.88;;;14.10;99.90;;;;;;5043649;28;20120;-64
2022/06/07 08:48:32;;;;;;;11.45;2.50;;;14.30;99.90;;;;;;5039679;28;20044;-64
2022/06/07 08:51:19;;;;;;;7.50;2.08;;;14.40;99.90;;;;;;5042886;28;20402;-64
2022/06/07 08:53:51;;;;;;;7.13;1.98;;;14.50;99.90;;;;;;5035980;28;20049;-65
2022/06/07 08:56:21;;;;;;;6.38;1.70;;;14.70;99.90;;;;;;5077577;28;20477;-65
2022/06/07 08:58:51;;;;;;;6.95;2.33;;;14.90;99.90;;;;;;5082109;28;20135;-68
2022/06/07 09:01:23;;;;;;;6.45;2.00;;;14.90;99.90;;;;;;5051734;28;20051;-64
2022/06/07 09:04:14;;;;;;;9.32;1.88;;;14.90;99.90;;;;;;5040351;28;20509;-69
2022/06/07 09:06:45;;;;;;;9.32;2.22;;;14.90;99.90;;;;;;5048167;28;20411;-67
2022/06/07 09:09:13;;;;;;;10.10;2.88;;;14.90;99.90;;;;;;5052442;28;20041;-66
2022/06/07 09:14:33;;;;;;;8.55;2.45;;;15.00;99.90;;;;;;5040414;28;20063;-65
2022/06/07 09:17:04;;;;;;;8.20;2.15;;;15.00;99.90;;;;;;5035265;28;20483;-66
2022/06/07 09:19:31;;;;;;;6.53;1.83;;;15.00;99.90;;;;;;5039888;28;20076;-65
2022/06/07 09:22:00;;;;;;;8.55;2.22;;;15.10;99.90;;;;;;5077547;28;20362;-65
2022/06/07 09:24:37;;;;;;;8.63;2.30;;;15.00;99.90;;;;;;5051103;28;20056;-66
2022/06/07 09:27:16;;;;;;;15.73;1.90;;;15.00;99.90;;;;;;5037849;28;20860;-65
2022/06/07 09:29:52;;;;;;;8.73;1.90;;;14.90;99.90;;;;;;5042639;28;20085;-65
2022/06/07 09:32:22;;;;;;;4.43;1.48;;;14.60;99.90;;;;;;5044532;28;20053;-67
2022/06/07 09:34:54;;;;;;;5.45;1.98;;;14.50;99.90;;;;;;5051545;28;20052;-66
2022/06/07 09:37:40;;;;;;;6.88;1.92;;;14.40;99.90;;;;;;5040337;28;20047;-64
2022/06/07 09:40:21;;;;;;;8.50;2.25;;;14.20;99.90;;;;;;5044540;28;20098;-69
2022/06/07 09:43:08;;;;;;;6.38;1.95;;;14.10;99.90;;;;;;5059093;28;20057;-63
2022/06/07 09:45:46;;;;;;;9.52;2.17;;;14.00;99.90;;;;;;5041239;28;20041;-65
2022/06/07 09:48:38;;;;;;;5.20;1.60;;;14.00;99.90;;;;;;5074041;28;20118;-64
2022/06/07 09:51:06;;;;;;;9.05;1.63;;;14.00;99.90;;;;;;5044770;28;20221;-64
2022/06/07 09:53:41;;;;;;;11.73;2.20;;;14.00;99.90;;;;;;5046727;28;20379;-67
2022/06/07 09:56:24;;;;;;;5.88;1.90;;;14.10;99.90;;;;;;5042650;28;20492;-68
2022/06/07 09:59:27;;;;;;;6.00;1.80;;;14.20;99.90;;;;;;5025733;28;20053;-65
2022/06/07 10:02:19;;;;;;;7.45;2.03;;;14.30;99.90;;;;;;5050041;28;20049;-64
2022/06/07 10:04:51;;;;;;;9.35;1.90;;;14.50;99.90;;;;;;5079269;28;20475;-64
2022/06/07 10:07:26;;;;;;;6.68;1.83;;;14.60;99.90;;;;;;5047530;28;20406;-66
2022/06/07 10:10:25;;;;;;;10.07;2.05;;;14.90;99.90;;;;;;5054127;28;20102;-65
2022/06/07 10:13:16;;;;;;;9.13;2.10;;;15.00;99.90;;;;;;5037094;28;20057;-64
2022/06/07 10:15:44;;;;;;;10.85;2.03;;;15.10;99.90;;;;;;5073840;28;20122;-66
2022/06/07 10:18:20;;;;;;;6.68;1.98;;;15.00;99.90;;;;;;5042053;28;20425;-64
2022/06/07 10:20:57;;;;;;;8.02;2.28;;;14.90;99.90;;;;;;5032234;28;20136;-65
2022/06/07 10:23:47;;;;;;;9.07;2.28;;;14.90;99.90;;;;;;5049307;28;20041;-64
2022/06/07 10:26:30;;;;;;;8.32;2.13;;;14.80;99.90;;;;;;5032083;28;20080;-65
2022/06/07 10:29:08;;;;;;;7.78;2.22;;;14.80;99.90;;;;;;5036780;28;20510;-64
2022/06/07 10:32:19;;;;;;;10.82;2.30;;;14.90;99.90;;;;;;5038079;28;20276;-64
2022/06/07 10:34:58;;;;;;;7.22;2.00;;;15.00;99.90;;;;;;5082694;28;20486;-65
2022/06/07 10:38:06;;;;;;;7.30;2.13;;;15.10;99.90;;;;;;5073029;28;20048;-63
2022/06/07 10:40:41;;;;;;;9.00;2.22;;;15.10;99.90;;;;;;5044004;28;20144;-64
2022/06/07 10:43:53;;;;;;;8.30;2.28;;;15.10;99.90;;;;;;5043140;28;20479;-64
2022/06/07 10:46:21;;;;;;;8.88;2.08;;;15.10;99.90;;;;;;5024501;28;20079;-65
2022/06/07 10:49:15;;;;;;;5.63;1.55;;;15.10;99.90;;;;;;5047536;28;20045;-65
2022/06/07 10:54:49;;;;;;;10.48;1.70;;;14.90;99.90;;;;;;5043480;28;20598;-65
2022/06/07 10:57:37;;;;;;;9.02;2.08;;;14.90;99.90;;;;;;5042734;28;20071;-65
2022/06/07 11:00:34;;;;;;;7.30;1.92;;;14.90;99.90;;;;;;5055609;28;20406;-68
2022/06/07 11:03:05;;;;;;;6.78;2.00;;;14.90;99.90;;;;;;5049935;28;20041;-64
2022/06/07 11:11:29;;;;;;;7.97;2.08;;;14.80;99.90;;;;;;5015733;28;20058;-66
2022/06/07 11:14:19;;;;;;;13.07;2.08;;;14.80;99.90;;;;;;5030567;28;20056;-64
2022/06/07 11:16:56;;;;;;;5.90;1.83;;;14.90;99.90;;;;;;5049704;28;20045;-64
2022/06/07 11:19:22;;;;;;;7.38;2.00;;;15.00;99.90;;;;;;5050278;28;20048;-65
2022/06/07 11:21:57;;;;;;;5.30;1.45;;;15.20;99.90;;;;;;5064318;28;20126;-64
2022/06/07 11:24:30;;;;;;;5.20;1.63;;;15.40;99.90;;;;;;5051396;28;20052;-66
2022/06/07 11:26:57;;;;;;;5.20;1.73;;;15.50;99.90;;;;;;5050050;28;20451;-65
2022/06/07 11:29:32;;;;;;;8.07;1.98;;;15.60;99.90;;;;;;5048712;28;20041;-65
2022/06/07 11:32:00;;;;;;;4.47;1.42;;;15.70;99.90;;;;;;5050042;28;20122;-66
2022/06/07 11:34:34;;;;;;;9.23;2.13;;;15.80;99.90;;;;;;5049165;28;20044;-64
2022/06/07 11:37:09;;;;;;;6.35;1.70;;;15.80;99.90;;;;;;5041723;28;20036;-64
2022/06/07 11:39:38;;;;;;;5.90;1.75;;;15.90;99.90;;;;;;5041517;28;20057;-64
2022/06/07 11:42:34;;;;;;;4.78;1.83;;;16.00;99.90;;;;;;5040945;28;20051;-63
2022/06/07 11:45:05;;;;;;;5.32;1.60;;;16.10;99.90;;;;;;5043021;28;20045;-65
2022/06/07 11:48:01;;;;;;;5.00;1.83;;;16.20;99.90;;;;;;5054918;28;20474;-63
2022/06/07 11:50:29;;;;;;;6.22;1.70;;;16.50;99.90;;;;;;5041765;28;20560;-65
2022/06/07 11:53:20;;;;;;;4.07;1.85;;;16.60;99.90;;;;;;5039409;28;20049;-65
2022/06/07 11:55:53;;;;;;;4.50;1.85;;;16.60;99.90;;;;;;5032441;28;20064;-64
2022/06/07 11:58:53;;;;;;;6.28;1.92;;;16.50;99.90;;;;;;5038321;28;20059;-63
2022/06/07 12:01:33;;;;;;;6.03;1.70;;;16.40;99.90;;;;;;5037912;28;20045;-63
2022/06/07 12:04:36;;;;;;;4.70;1.67;;;16.50;99.90;;;;;;5039403;28;20041;-63
2022/06/07 12:07:29;;;;;;;4.55;1.45;;;16.40;99.90;;;;;;5044075;28;20045;-65
2022/06/07 12:09:58;;;;;;;3.25;1.17;;;16.30;99.90;;;;;;5035621;28;20106;-65
2022/06/07 12:12:31;;;;;;;4.80;1.38;;;16.30;99.90;;;;;;5060863;28;20064;-64
2022/06/07 12:15:14;;;;;;;6.20;1.38;;;16.30;99.90;;;;;;5047522;28;20592;-63
2022/06/07 12:18:11;;;;;;;3.63;1.58;;;16.30;99.90;;;;;;5048160;28;20379;-66
2022/06/07 12:20:40;;;;;;;5.72;1.42;;;16.30;99.90;;;;;;5045684;28;20126;-64
2022/06/07 12:23:37;;;;;;;4.38;1.63;;;16.20;99.90;;;;;;5047165;28;20056;-64
2022/06/07 12:26:08;;;;;;;4.00;1.70;;;16.20;99.90;;;;;;5034400;28;20084;-64
2022/06/07 12:28:39;;;;;;;4.57;1.40;;;16.20;99.90;;;;;;5045020;28;20058;-63
2022/06/07 12:31:23;;;;;;;3.35;1.45;;;16.40;99.90;;;;;;5041157;28;20038;-63
2022/06/07 12:33:54;;;;;;;3.35;1.38;;;16.40;99.90;;;;;;5034229;28;20045;-64
2022/06/07 12:36:28;;;;;;;5.03;1.50;;;16.60;99.90;;;;;;5047332;28;20123;-64
2022/06/07 12:38:57;;;;;;;4.55;1.52;;;16.60;99.90;;;;;;5049581;28;20053;-64
2022/06/07 12:41:26;;;;;;;7.05;1.58;;;16.70;99.90;;;;;;5047202;28;20513;-63
2022/06/07 12:43:55;;;;;;;5.32;1.70;;;16.70;99.90;;;;;;5050629;28;20164;-64
2022/06/07 12:46:28;;;;;;;8.30;1.63;;;16.70;99.90;;;;;;5052314;28;20095;-64
2022/06/07 12:48:58;;;;;;;7.47;1.73;;;16.60;99.90;;;;;;5051716;28;20041;-64
2022/06/07 12:51:35;;;;;;;6.05;1.67;;;16.60;99.90;;;;;;5048157;28;20076;-65
2022/06/07 12:54:06;;;;;;;7.85;2.00;;;16.60;99.90;;;;;;5037157;28;20561;-64
2022/06/07 12:56:37;;;;;;;8.77;2.22;;;16.60;99.90;;;;;;5043188;28;20056;-65
2022/06/07 12:59:17;;;;;;;6.38;1.80;;;16.70;99.90;;;;;;5046545;28;20045;-65
2022/06/07 13:01:48;;;;;;;3.60;1.55;;;16.80;99.90;;;;;;5037902;28;20125;-64
2022/06/07 13:04:35;;;;;;;5.63;1.70;;;16.90;99.90;;;;;;5049209;28;20051;-64
2022/06/07 13:07:04;;;;;;;7.72;2.17;;;17.00;99.90;;;;;;5042870;28;20094;-64
2022/06/07 13:09:31;;;;;;;8.23;1.90;;;17.10;99.90;;;;;;5083785;28;20128;-64
2022/06/07 13:11:57;;;;;;;7.95;1.95;;;17.10;99.90;;;;;;5037776;28;20051;-65
2022/06/07 13:14:23;;;;;;;7.00;1.88;;;17.20;99.90;;;;;;5052200;28;20148;-64
2022/06/07 13:16:52;;;;;;;4.55;1.42;;;17.30;99.90;;;;;;5064774;28;20037;-66
2022/06/07 13:19:27;;;;;;;3.38;1.50;;;17.30;99.90;;;;;;5052154;28;20056;-63
2022/06/07 13:22:09;;;;;;;4.80;1.40;;;17.30;99.90;;;;;;5049897;28;20435;-64
2022/06/07 13:24:51;;;;;;;4.05;1.38;;;17.30;99.90;;;;;;5044671;28;20107;-64
2022/06/07 13:27:35;;;;;;;4.65;1.40;;;17.40;99.90;;;;;;5044550;28;20045;-63
2022/06/07 13:30:01;;;;;;;6.27;1.70;;;17.50;99.90;;;;;;5046371;28;20040;-63